KOJC/OJC METAR and TAF weather

Enter ICAO airport designator
Station Type Date Time Source
KOJC METAR 2021/09/16 21:53 UTC NOAA

KOJC 162153Z 15009KT 10SM CLR 29/19 A2992 RMK AO2 SLP121 T02890189


Station Type Date Time Source
KOJC Decoded METAR 2021/09/16 21:53 UTC NOAA

OLATHE JOHNSON CO EXECUTIVE, KS, United States (KOJC) 38-50N 94-44W 326M
Sep 16, 2021 - 05:53 PM EDT / 2021.09.16 2153 UTC
Wind: from the SSE (150 degrees) at 10 MPH (9 KT):0
Visibility: 10 mile(s):0
Sky conditions: clear
Temperature: 84.0 F (28.9 C)
Dew Point: 66.0 F (18.9 C)
Relative Humidity: 54%
Pressure (altimeter): 29.92 in. Hg (1013 hPa)
ob: KOJC 162153Z 15009KT 10SM CLR 29/19 A2992 RMK AO2 SLP121 T02890189
cycle: 22

Station Type Date Time Source
KOJC TAF UTC NOAA

Error!

Example: see airport list